Palm Springs, CA

8:16 AM PST en Enero 25, 2015 (GMT -0800)
PS Park San Rafael @ Naked Palms | Change Station
CLOSE
Current Station
Estación meteorológica personal
Location: Palm Springs, CA
Altura: 581 ft
Estaciones meteorológicas cercanas

Alt 581 ft 33.86 °N, 116.54 °W | Updated 12 minutes ago

Despejado
Despejado
66.9 ° F
Sensación térmica 66.9 ° F
N
4.2
Viento Variable Viento desde Oeste

Hoy
Alta -- | Baja -- ° F
--% Posibilidad de precipitaciones
Ayer
Alta -- | Baja -- ° F
Precip. -- pul
6:47 AM 5:10 PM
Creciente, 33% visible
Presión 30.13 pul
Visibilidad 10.0 Millas
Nubes Despejado
Punto de rocío 27 ° F
Humedad 22%
Precipitaciones 0.00 pul
Espesor de la nieve No disponible.
UV 1 de una escala de 12
Polen 6.70 de una escala de 12
Calidad del aire No disponible.
Flu Activity No disponible.
METAR KPSP 251553Z 00000KT 10SM CLR 18/M05 A3014 RMK AO2 SLP203 T01831050

More Conditions Fewer Conditions

Presión 30.13 pul
Visibilidad 10.0 Millas
Nubes Despejado
Punto de rocío 27 ° F
Humedad 22%
Precipitaciones 0.00 pul
Espesor de la nieve No disponible.
UV 1 de una escala de 12
Polen 6.70 de una escala de 12
Calidad del aire No disponible.
Flu Activity No disponible.
METAR KPSP 251553Z 00000KT 10SM CLR 18/M05 A3014 RMK AO2 SLP203 T01831050

More Conditions Fewer Conditions

10-Day Weather Forecast

Almanac

Astronomía

Jan. 25, 2015 Salida Puesta
Hora real
Crepúsculo civil
Crepúsculo náutico
Crepúsculo astronómico
Luna
Horas de luz
Horas de luz
Tomorrow will be .
, % of the Moon is Illuminated

Extremos de hoy

Máximos del estado Bajos del estado

Community

WunderPhotos

Upload Photos

1,789,939 ¡fotos cargadas!

WunderBlogs® & News

Nearby

Calidad del aire

  Calidad del aire Índice AQ Contaminante
Not available.

Grosos de nieve

Estación Profundido Altura

Actividad de terremotos

Ciudad Distance Mag. Tiempo y dato
Magnitud mínima muestra es 2,5.

Temperaturas de aguas costeras

Lugar Temperatura

Estaciones meteorológicas cercanas